Westwood, Louisiana
Current Conditions -  °F | °C
As of 7:53 AM on Wednesday 28 Jan 2015 (Local Time) from KTVR Reporting Station
Clear Clear  
Wind Chill: 40°   Ceiling: Unl
Heat Index: 44°   Visibility: 10mi
Dew Point: 36°   Wind: 7mph
Humidity: 73%   Direction: 120°ESE
Pressure: 30.27"   Gusts: NA
Location:  32.1015°N, 91.2929°W
Report Text: KTVR 281353Z AUTO 12006KT 10SM CLR 07/02 A3027 RMK AO2 SLP256 T00670022
Loading
Personal Weather Stations






























Interactive Weather Map New forecast layout! Learn more

10-Day Weather Forecast

Advertisements
Track Severe Weather on mobile